createdAt,value
2019-05-22T00:01:35.832Z,99484.70
2019-05-22T00:04:19.679Z,99476.34
2019-05-22T00:06:53.128Z,99476.84
2019-05-22T00:09:27.585Z,99482.63
2019-05-22T00:12:01.455Z,99477.82
2019-05-22T00:14:36.353Z,99477.44
2019-05-22T00:17:11.478Z,99474.74
2019-05-22T00:19:45.270Z,99469.08
2019-05-22T00:22:25.327Z,99470.82
2019-05-22T00:24:59.665Z,99473.53
2019-05-22T00:27:33.354Z,99469.50
2019-05-22T00:30:11.465Z,99473.85
2019-05-22T00:32:47.517Z,99472.05
2019-05-22T00:35:23.676Z,99474.64
2019-05-22T00:37:57.981Z,99475.12
2019-05-22T00:40:32.328Z,99475.02
2019-05-22T00:43:13.552Z,99473.63
2019-05-22T00:45:44.118Z,99472.69
2019-05-22T00:48:19.471Z,99477.05
2019-05-22T00:50:57.786Z,99477.92
2019-05-22T00:53:43.776Z,99474.30
2019-05-22T00:56:33.952Z,99480.45
2019-05-22T00:59:11.203Z,99484.48
2019-05-22T01:01:48.834Z,99480.91
2019-05-22T01:04:24.201Z,99479.03
2019-05-22T01:06:59.208Z,99478.97
2019-05-22T01:09:40.188Z,99471.97
2019-05-22T01:12:21.521Z,99471.09
2019-05-22T01:14:54.659Z,99478.97
2019-05-22T01:17:31.150Z,99482.48
2019-05-22T01:20:07.902Z,99482.42
2019-05-22T01:22:42.838Z,99484.52
2019-05-22T01:25:19.104Z,99480.00
2019-05-22T01:27:52.636Z,99484.29
2019-05-22T01:30:29.778Z,99490.02
2019-05-22T01:33:05.229Z,99484.21
2019-05-22T01:35:37.911Z,99490.72
2019-05-22T01:38:13.744Z,99491.98
2019-05-22T01:40:51.240Z,99488.44
2019-05-22T01:43:27.160Z,99491.98
2019-05-22T01:46:07.766Z,99493.62
2019-05-22T01:48:43.316Z,99500.19
2019-05-22T01:51:18.964Z,99499.28
2019-05-22T01:53:52.875Z,99495.24
2019-05-22T01:56:25.549Z,99500.92
2019-05-22T01:58:59.163Z,99495.92
2019-05-22T02:01:32.777Z,99497.06
2019-05-22T02:04:06.617Z,99496.68
2019-05-22T02:06:40.280Z,99499.21
2019-05-22T02:09:34.751Z,99502.86
2019-05-22T02:12:16.544Z,99495.15
2019-05-22T02:14:52.693Z,99489.35
2019-05-22T02:17:32.111Z,99497.42
2019-05-22T02:20:07.601Z,99508.47
2019-05-22T02:22:41.411Z,99506.20
2019-05-22T02:25:15.140Z,99507.08
2019-05-22T02:27:48.696Z,99498.25
2019-05-22T02:30:25.361Z,99495.22
2019-05-22T02:32:58.454Z,99492.69
2019-05-22T02:35:31.641Z,99488.53
2019-05-22T02:38:05.046Z,99487.70
2019-05-22T02:40:39.675Z,99491.58
2019-05-22T02:43:13.677Z,99499.13
2019-05-22T02:45:48.200Z,99494.34
2019-05-22T02:48:21.468Z,99494.92
2019-05-22T02:50:54.798Z,99486.27
2019-05-22T02:53:28.495Z,99490.44
2019-05-22T02:56:01.273Z,99502.61
2019-05-22T02:58:34.035Z,99514.03
2019-05-22T03:01:08.623Z,99514.40
2019-05-22T03:03:41.257Z,99511.45
2019-05-22T03:06:16.390Z,99513.27
2019-05-22T03:09:06.703Z,99520.79
2019-05-22T03:11:45.404Z,99521.66
2019-05-22T03:14:18.081Z,99525.12
2019-05-22T03:16:56.829Z,99529.86
2019-05-22T03:19:43.711Z,99524.23
2019-05-22T03:22:27.141Z,99527.03
2019-05-22T03:25:02.992Z,99525.41
2019-05-22T03:27:45.612Z,99530.06
2019-05-22T03:30:34.875Z,99530.95
2019-05-22T03:33:08.547Z,99531.88
2019-05-22T03:35:50.488Z,99535.03
2019-05-22T03:38:23.468Z,99530.73
2019-05-22T03:40:56.393Z,99540.39
2019-05-22T03:43:30.563Z,99543.87
2019-05-22T03:46:22.627Z,99542.14
2019-05-22T03:48:56.601Z,99545.34
2019-05-22T03:51:29.331Z,99551.14
2019-05-22T03:54:02.891Z,99551.75
2019-05-22T03:56:40.486Z,99551.75
2019-05-22T03:59:14.287Z,99546.45
2019-05-22T04:01:47.482Z,99551.59
2019-05-22T04:04:39.941Z,99549.11
2019-05-22T04:07:15.670Z,99554.28
2019-05-22T04:09:50.411Z,99553.89
2019-05-22T04:12:23.286Z,99558.37
2019-05-22T04:14:56.381Z,99555.79
2019-05-22T04:17:29.260Z,99562.02
2019-05-22T04:20:04.813Z,99568.63
2019-05-22T04:22:38.707Z,99565.55
2019-05-22T04:25:12.919Z,99567.69
2019-05-22T04:27:45.913Z,99578.23
2019-05-22T04:30:19.517Z,99570.30
2019-05-22T04:32:52.203Z,99578.06
2019-05-22T04:35:24.778Z,99575.84
2019-05-22T04:37:58.373Z,99570.61
2019-05-22T04:40:45.586Z,99570.62
2019-05-22T04:43:21.660Z,99579.45
2019-05-22T04:45:56.082Z,99582.09
2019-05-22T04:48:30.149Z,99580.83
2019-05-22T04:51:23.425Z,99574.64
2019-05-22T04:53:57.023Z,99580.44
2019-05-22T04:56:30.852Z,99582.47
2019-05-22T04:59:03.891Z,99578.16
2019-05-22T05:01:37.130Z,99581.75
2019-05-22T05:04:10.117Z,99580.38
2019-05-22T05:06:43.208Z,99582.80
2019-05-22T05:09:16.560Z,99583.64
2019-05-22T05:11:49.228Z,99589.47
2019-05-22T05:14:21.866Z,99593.33
2019-05-22T05:16:55.101Z,99589.31
2019-05-22T05:19:27.727Z,99590.19
2019-05-22T05:22:01.779Z,99592.78
2019-05-22T05:24:34.410Z,99594.50
2019-05-22T05:27:08.761Z,99595.32
2019-05-22T05:29:41.412Z,99593.56
2019-05-22T05:32:14.189Z,99595.11
2019-05-22T05:34:51.251Z,99593.23
2019-05-22T05:37:24.774Z,99594.95
2019-05-22T05:40:09.032Z,99595.39
2019-05-22T05:42:42.198Z,99606.81
2019-05-22T05:45:16.854Z,99602.40
2019-05-22T05:47:49.727Z,99610.85
2019-05-22T05:50:38.410Z,99608.58
2019-05-22T05:53:00.866Z,99612.94
2019-05-22T05:56:01.559Z,99610.61
2019-05-22T05:58:35.682Z,99616.52
2019-05-22T06:01:19.918Z,99616.91
2019-05-22T06:03:54.236Z,99615.03
2019-05-22T06:06:35.415Z,99624.86
2019-05-22T06:09:12.802Z,99620.95
2019-05-22T06:11:50.086Z,99625.08
2019-05-22T06:14:31.904Z,99627.69
2019-05-22T06:17:45.522Z,99623.58
2019-05-22T06:20:20.251Z,99620.20
2019-05-22T06:23:28.262Z,99621.14
2019-05-22T06:26:02.720Z,99624.16
2019-05-22T06:28:38.505Z,99627.34
2019-05-22T06:31:31.815Z,99626.29
2019-05-22T06:34:06.428Z,99630.72
2019-05-22T06:36:39.200Z,99621.93
2019-05-22T06:39:13.929Z,99618.23
2019-05-22T06:41:48.144Z,99629.00
2019-05-22T06:44:37.690Z,99629.83
2019-05-22T06:47:12.151Z,99633.52
2019-05-22T06:50:00.782Z,99632.91
2019-05-22T06:53:08.994Z,99631.38
2019-05-22T06:55:32.376Z,99632.63
2019-05-22T06:58:05.971Z,99636.44
2019-05-22T07:00:39.259Z,99629.13
2019-05-22T07:03:19.036Z,99637.84
2019-05-22T07:06:00.246Z,99641.05
2019-05-22T07:08:46.079Z,99645.84
2019-05-22T07:11:22.321Z,99646.11
2019-05-22T07:13:55.732Z,99652.45
2019-05-22T07:16:34.330Z,99654.00
2019-05-22T07:19:11.318Z,99650.27
2019-05-22T07:21:47.534Z,99654.71
2019-05-22T07:24:24.224Z,99662.00
2019-05-22T07:27:05.483Z,99668.13
2019-05-22T07:29:40.913Z,99666.98
2019-05-22T07:32:18.190Z,99667.48
2019-05-22T07:34:53.964Z,99667.20
2019-05-22T07:37:29.268Z,99666.66
2019-05-22T07:40:05.646Z,99676.13
2019-05-22T07:42:41.720Z,99671.78
2019-05-22T07:45:18.985Z,99673.91
2019-05-22T07:47:56.939Z,99677.30
2019-05-22T07:50:34.032Z,99675.02
2019-05-22T07:53:09.614Z,99675.61
2019-05-22T07:55:46.106Z,99674.79
2019-05-22T07:58:21.793Z,99674.22
2019-05-22T08:01:01.256Z,99673.84
2019-05-22T08:03:37.475Z,99681.01
2019-05-22T08:06:12.356Z,99678.12
2019-05-22T08:08:46.249Z,99685.93
2019-05-22T08:11:29.215Z,99683.34
2019-05-22T08:14:11.069Z,99687.33
2019-05-22T08:16:55.471Z,99680.82
2019-05-22T08:19:35.280Z,99689.67
2019-05-22T08:22:16.595Z,99687.69
2019-05-22T08:24:55.515Z,99689.13
2019-05-22T08:27:39.570Z,99690.89
2019-05-22T08:30:13.924Z,99695.31
2019-05-22T08:32:51.869Z,99696.70
2019-05-22T08:35:30.726Z,99693.27
2019-05-22T08:38:08.841Z,99689.09
2019-05-22T08:40:51.861Z,99699.21
2019-05-22T08:43:27.901Z,99704.63
2019-05-22T08:46:06.206Z,99706.09
2019-05-22T08:48:49.307Z,99704.06
2019-05-22T08:51:30.772Z,99711.72
2019-05-22T08:54:09.193Z,99706.78
2019-05-22T08:56:52.030Z,99724.73
2019-05-22T08:59:25.708Z,99728.63
2019-05-22T09:02:05.083Z,99724.25
2019-05-22T09:04:44.318Z,99727.73
2019-05-22T09:07:24.234Z,99731.07
2019-05-22T09:10:03.558Z,99736.22
2019-05-22T09:12:42.014Z,99738.73
2019-05-22T09:15:24.606Z,99738.78
2019-05-22T09:18:01.321Z,99736.80
2019-05-22T09:20:49.486Z,99740.38
2019-05-22T09:23:22.792Z,99748.28
2019-05-22T09:26:01.934Z,99742.15
2019-05-22T09:28:40.989Z,99747.22
2019-05-22T09:31:20.615Z,99758.16
2019-05-22T09:33:59.491Z,99753.95
2019-05-22T09:36:41.955Z,99752.11
2019-05-22T09:39:26.404Z,99753.68
2019-05-22T09:42:08.106Z,99753.38
2019-05-22T09:44:51.343Z,99759.44
2019-05-22T09:47:37.257Z,99757.09
2019-05-22T09:50:18.732Z,99762.91
2019-05-22T09:53:00.631Z,99765.56
2019-05-22T09:55:37.682Z,99766.80
2019-05-22T09:58:16.636Z,99768.34
2019-05-22T10:01:01.074Z,99769.70
2019-05-22T10:03:39.566Z,99774.50
2019-05-22T10:06:16.304Z,99777.64
2019-05-22T10:08:51.652Z,99787.58
2019-05-22T10:11:28.090Z,99777.88
2019-05-22T10:14:04.272Z,99782.34
2019-05-22T10:16:39.049Z,99781.56
2019-05-22T10:19:14.503Z,99783.80
2019-05-22T10:21:51.428Z,99793.37
2019-05-22T10:24:28.441Z,99792.52
2019-05-22T10:27:02.889Z,99795.37
2019-05-22T10:29:38.035Z,99804.92
2019-05-22T10:32:12.630Z,99789.34
2019-05-22T10:34:47.140Z,99795.55
2019-05-22T10:37:22.766Z,99808.19
2019-05-22T10:39:58.992Z,99805.02
2019-05-22T10:42:34.508Z,99809.27
2019-05-22T10:45:12.179Z,99812.18
2019-05-22T10:47:46.058Z,99815.65
2019-05-22T10:50:19.607Z,99815.09
2019-05-22T10:52:58.651Z,99815.75
2019-05-22T10:55:41.909Z,99818.26
2019-05-22T10:58:22.034Z,99819.63
2019-05-22T11:01:04.264Z,99819.61
2019-05-22T11:03:47.422Z,99820.73
2019-05-22T11:06:24.645Z,99813.25
2019-05-22T11:09:00.797Z,99817.23
2019-05-22T11:11:39.775Z,99821.13
2019-05-22T11:14:17.772Z,99819.63
2019-05-22T11:16:53.894Z,99815.38
2019-05-22T11:19:30.670Z,99811.39
2019-05-22T11:22:11.550Z,99815.13
2019-05-22T11:24:50.611Z,99814.82
2019-05-22T11:27:34.165Z,99823.91
2019-05-22T11:30:14.547Z,99820.33
2019-05-22T11:32:52.350Z,99814.27
2019-05-22T11:35:29.335Z,99813.42
2019-05-22T11:38:04.692Z,99809.77
2019-05-22T11:40:44.834Z,99811.20
2019-05-22T11:43:22.048Z,99817.22
2019-05-22T11:45:54.990Z,99810.75
2019-05-22T11:48:35.544Z,99822.20
2019-05-22T11:51:16.829Z,99826.42
2019-05-22T11:54:08.217Z,99828.75
2019-05-22T11:56:29.699Z,99840.16
2019-05-22T11:59:06.165Z,99843.26
2019-05-22T12:01:41.558Z,99835.11
2019-05-22T12:04:18.359Z,99843.52
2019-05-22T12:06:54.847Z,99845.66
2019-05-22T12:09:31.157Z,99837.22
2019-05-22T12:12:07.545Z,99842.39
2019-05-22T12:14:43.375Z,99839.88
2019-05-22T12:17:36.576Z,99836.95
2019-05-22T12:19:58.320Z,99847.93
2019-05-22T12:22:33.542Z,99848.09
2019-05-22T12:25:14.401Z,99840.71
2019-05-22T12:27:49.719Z,99831.22
2019-05-22T12:30:24.848Z,99839.23
2019-05-22T12:33:12.264Z,99834.91
2019-05-22T12:35:40.892Z,99835.64
2019-05-22T12:38:20.383Z,99840.53
2019-05-22T12:40:55.841Z,99843.55
2019-05-22T12:43:37.713Z,99858.48
2019-05-22T12:46:18.824Z,99860.07
2019-05-22T12:48:57.126Z,99850.83
2019-05-22T12:51:34.951Z,99844.28
2019-05-22T12:54:09.907Z,99856.48
2019-05-22T12:56:45.525Z,99860.75
2019-05-22T12:59:21.556Z,99842.64
2019-05-22T13:01:55.208Z,99854.61
2019-05-22T13:04:32.851Z,99852.69
2019-05-22T13:07:07.221Z,99849.08
2019-05-22T13:09:50.991Z,99846.97
2019-05-22T13:12:37.185Z,99845.98
2019-05-22T13:15:16.755Z,99847.27
2019-05-22T13:17:53.983Z,99844.50
2019-05-22T13:20:42.077Z,99845.00
2019-05-22T13:23:07.944Z,99843.00
2019-05-22T13:25:42.069Z,99842.80
2019-05-22T13:28:18.420Z,99827.63
2019-05-22T13:30:55.717Z,99835.48
2019-05-22T13:33:29.820Z,99838.55
2019-05-22T13:36:03.229Z,99835.66
2019-05-22T13:38:36.618Z,99831.92
2019-05-22T13:41:09.711Z,99831.55
2019-05-22T13:43:43.330Z,99839.23
2019-05-22T13:46:16.026Z,99838.25
2019-05-22T13:48:48.764Z,99845.41
2019-05-22T13:51:22.055Z,99851.15
2019-05-22T13:53:55.962Z,99849.66
2019-05-22T13:56:30.178Z,99855.98
2019-05-22T13:59:04.197Z,99856.06
2019-05-22T14:01:37.274Z,99853.40
2019-05-22T14:04:10.052Z,99858.21
2019-05-22T14:06:43.404Z,99866.53
2019-05-22T14:09:21.126Z,99867.02
2019-05-22T14:11:52.092Z,99866.13
2019-05-22T14:14:25.496Z,99865.95
2019-05-22T14:16:57.871Z,99875.09
2019-05-22T14:19:30.845Z,99877.77
2019-05-22T14:22:03.532Z,99874.16
2019-05-22T14:24:35.924Z,99863.52
2019-05-22T14:27:08.981Z,99868.11
2019-05-22T14:29:42.382Z,99873.11
2019-05-22T14:32:17.221Z,99875.59
2019-05-22T14:34:49.999Z,99875.69
2019-05-22T14:37:23.342Z,99878.61
2019-05-22T14:39:56.573Z,99899.54
2019-05-22T14:42:29.158Z,99889.38
2019-05-22T14:45:01.850Z,99885.83
2019-05-22T14:47:34.712Z,99891.70
2019-05-22T14:50:09.848Z,99898.78
2019-05-22T14:52:43.004Z,99894.02
2019-05-22T14:55:16.549Z,99896.28
2019-05-22T14:57:50.478Z,99901.02
2019-05-22T15:00:25.696Z,99881.64
2019-05-22T15:02:59.333Z,99894.90
2019-05-22T15:05:33.224Z,99897.14
2019-05-22T15:08:08.117Z,99912.28
2019-05-22T15:10:41.942Z,99917.76
2019-05-22T15:13:14.825Z,99923.63
2019-05-22T15:15:47.508Z,99922.06
2019-05-22T15:18:20.195Z,99933.29
2019-05-22T15:20:54.416Z,99938.45
2019-05-22T15:23:27.595Z,99931.43
2019-05-22T15:26:01.698Z,99943.66
2019-05-22T15:28:36.453Z,99945.02
2019-05-22T15:31:10.227Z,99944.27
2019-05-22T15:33:43.136Z,99950.38
2019-05-22T15:36:19.484Z,99945.12
2019-05-22T15:38:53.001Z,99958.55
2019-05-22T15:41:26.679Z,99964.38
2019-05-22T15:44:00.802Z,99965.79
2019-05-22T15:46:35.161Z,99961.59
2019-05-22T15:49:09.528Z,99952.53
2019-05-22T15:51:43.549Z,99951.03
2019-05-22T15:54:18.590Z,99949.75
2019-05-22T15:56:52.186Z,99959.61
2019-05-22T15:59:27.346Z,99966.33
2019-05-22T16:02:03.476Z,99961.98
2019-05-22T16:04:42.917Z,99965.59
2019-05-22T16:07:18.981Z,99971.39
2019-05-22T16:09:54.707Z,99979.29
2019-05-22T16:12:29.717Z,99980.20
2019-05-22T16:15:05.871Z,99970.60
2019-05-22T16:17:41.699Z,99973.72
2019-05-22T16:20:17.185Z,99969.75
2019-05-22T16:22:52.339Z,99972.39
2019-05-22T16:25:33.291Z,99965.31
2019-05-22T16:28:09.905Z,99959.58
2019-05-22T16:30:47.213Z,99959.20
2019-05-22T16:33:25.399Z,99967.16
2019-05-22T16:36:01.349Z,99974.22
2019-05-22T16:38:37.577Z,99959.70
2019-05-22T16:41:16.966Z,99958.95
2019-05-22T16:44:01.526Z,99959.80
2019-05-22T16:46:47.179Z,99950.13
2019-05-22T16:49:31.992Z,99977.09
2019-05-22T16:52:14.968Z,99972.30
2019-05-22T16:54:56.587Z,99962.23
2019-05-22T16:57:33.128Z,99971.01
2019-05-22T17:00:10.413Z,99969.30
2019-05-22T17:02:49.891Z,99976.32
2019-05-22T17:05:30.118Z,99979.91
2019-05-22T17:08:08.545Z,99975.91
2019-05-22T17:10:51.975Z,99972.85
2019-05-22T17:13:33.238Z,99973.30
2019-05-22T17:16:16.499Z,99989.59
2019-05-22T17:18:57.252Z,99999.21
2019-05-22T17:21:38.807Z,99998.82
2019-05-22T17:24:22.430Z,99999.70
2019-05-22T17:27:04.866Z,100001.02
2019-05-22T17:29:49.919Z,100001.55
2019-05-22T17:32:35.823Z,100006.85
2019-05-22T17:35:20.312Z,100009.08
2019-05-22T17:38:08.699Z,100015.24
2019-05-22T17:40:55.835Z,100020.59
2019-05-22T17:43:33.050Z,100007.38
2019-05-22T17:46:13.005Z,100011.38
2019-05-22T17:48:50.133Z,100011.42
2019-05-22T17:51:26.251Z,100014.52
2019-05-22T17:54:02.532Z,100010.53
2019-05-22T17:56:39.539Z,100012.73
2019-05-22T17:59:15.138Z,100011.00
2019-05-22T18:01:53.635Z,100010.14
2019-05-22T18:04:30.854Z,100015.48
2019-05-22T18:07:04.840Z,100010.63
2019-05-22T18:09:39.923Z,100018.55
2019-05-22T18:12:15.593Z,100020.80
2019-05-22T18:14:52.297Z,100033.57
2019-05-22T18:17:27.259Z,100042.80
2019-05-22T18:20:03.777Z,100048.05
2019-05-22T18:22:38.999Z,100059.09
2019-05-22T18:25:15.541Z,100060.41
2019-05-22T18:27:49.293Z,100070.98
2019-05-22T18:30:25.990Z,100074.47
2019-05-22T18:32:59.936Z,100084.19
2019-05-22T18:35:34.512Z,100088.17
2019-05-22T18:38:08.066Z,100091.22
2019-05-22T18:40:49.169Z,100097.86
2019-05-22T18:43:28.559Z,100099.62
2019-05-22T18:48:36.220Z,100109.30
2019-05-22T18:51:11.697Z,100115.03
2019-05-22T18:53:46.646Z,100117.23
2019-05-22T18:56:27.085Z,100127.36
2019-05-22T18:59:03.518Z,100126.05
2019-05-22T19:01:38.688Z,100135.29
2019-05-22T19:04:17.761Z,100141.48
2019-05-22T19:06:55.807Z,100137.52
2019-05-22T19:09:28.760Z,100146.31
2019-05-22T19:12:05.090Z,100152.95
2019-05-22T19:14:39.671Z,100155.58
2019-05-22T19:17:13.794Z,100164.39
2019-05-22T19:19:49.075Z,100155.16
2019-05-22T19:22:22.585Z,100165.72
2019-05-22T19:24:58.399Z,100173.64
2019-05-22T19:27:34.057Z,100178.48
2019-05-22T19:30:10.904Z,100181.58
2019-05-22T19:32:44.462Z,100184.62
2019-05-22T19:35:17.041Z,100185.09
2019-05-22T19:37:55.304Z,100194.33
2019-05-22T19:40:34.560Z,100199.60
2019-05-22T19:43:15.878Z,100204.02
2019-05-22T19:45:53.809Z,100205.80
2019-05-22T19:48:30.230Z,100206.23
2019-05-22T19:51:08.149Z,100208.42
2019-05-22T19:53:48.408Z,100216.36
2019-05-22T19:56:30.320Z,100214.62
2019-05-22T19:59:12.455Z,100213.70
2019-05-22T20:01:49.089Z,100213.73
2019-05-22T20:04:27.446Z,100217.23
2019-05-22T20:07:04.026Z,100226.05
2019-05-22T20:09:40.501Z,100220.33
2019-05-22T20:12:18.719Z,100226.06
2019-05-22T20:14:57.738Z,100232.19
2019-05-22T20:17:34.916Z,100235.27
2019-05-22T20:20:13.728Z,100234.41
2019-05-22T20:22:48.878Z,100231.77
2019-05-22T20:25:25.107Z,100236.18
2019-05-22T20:28:00.813Z,100235.28
2019-05-22T20:30:35.570Z,100237.03
2019-05-22T20:33:10.725Z,100236.16
2019-05-22T20:35:44.658Z,100246.30
2019-05-22T20:38:20.290Z,100238.80
2019-05-22T20:40:54.888Z,100236.59
2019-05-22T20:43:30.319Z,100236.16
2019-05-22T20:46:07.077Z,100242.78
2019-05-22T20:48:41.804Z,100241.45
2019-05-22T20:51:16.554Z,100237.05
2019-05-22T20:53:54.350Z,100240.57
2019-05-22T20:56:28.657Z,100240.14
2019-05-22T20:59:02.816Z,100236.63
2019-05-22T21:01:37.601Z,100248.05
2019-05-22T21:04:13.948Z,100249.80
2019-05-22T21:07:04.656Z,100251.15
2019-05-22T21:09:39.663Z,100252.00
2019-05-22T21:12:14.532Z,100253.78
2019-05-22T21:14:47.838Z,100257.30
2019-05-22T21:17:40.334Z,100254.20
2019-05-22T21:20:16.199Z,100255.52
2019-05-22T21:22:50.546Z,100255.08
2019-05-22T21:25:25.863Z,100255.98
2019-05-22T21:27:59.067Z,100258.60
2019-05-22T21:30:33.376Z,100255.95
2019-05-22T21:33:07.275Z,100260.80
2019-05-22T21:35:39.875Z,100252.45
2019-05-22T21:38:13.354Z,100266.06
2019-05-22T21:40:46.850Z,100267.37
2019-05-22T21:43:20.117Z,100273.97
2019-05-22T21:45:55.878Z,100280.54
2019-05-22T21:48:30.274Z,100278.77
2019-05-22T21:51:02.894Z,100279.21
2019-05-22T21:53:37.519Z,100277.45
2019-05-22T21:56:11.524Z,100284.91
2019-05-22T21:58:44.411Z,100290.17
2019-05-22T22:01:20.269Z,100288.83
2019-05-22T22:04:01.679Z,100298.48
2019-05-22T22:06:35.350Z,100298.05
2019-05-22T22:09:09.565Z,100301.11
2019-05-22T22:11:44.495Z,100296.72
2019-05-22T22:14:18.991Z,100303.28
2019-05-22T22:16:54.824Z,100306.82
2019-05-22T22:19:30.748Z,100311.22
2019-05-22T22:22:05.040Z,100314.73
2019-05-22T22:24:37.733Z,100312.09
2019-05-22T22:27:11.383Z,100308.14
2019-05-22T22:29:44.004Z,100307.30
2019-05-22T22:32:17.802Z,100312.97
2019-05-22T22:34:53.050Z,100311.23
2019-05-22T22:37:26.957Z,100319.11
2019-05-22T22:40:01.183Z,100309.41
2019-05-22T22:42:37.134Z,100317.74
2019-05-22T22:45:20.673Z,100321.63
2019-05-22T22:47:54.878Z,100322.58
2019-05-22T22:50:33.908Z,100311.53
2019-05-22T22:53:09.137Z,100325.16
2019-05-22T22:55:42.341Z,100320.75
2019-05-22T22:58:18.706Z,100323.81
2019-05-22T23:00:54.555Z,100322.94
2019-05-22T23:03:30.918Z,100328.19
2019-05-22T23:06:06.876Z,100326.91
2019-05-22T23:08:42.431Z,100326.03
2019-05-22T23:11:18.035Z,100328.63
2019-05-22T23:13:53.520Z,100318.09
2019-05-22T23:16:28.036Z,100321.61
2019-05-22T23:19:16.792Z,100323.34
2019-05-22T23:21:49.005Z,100325.58
2019-05-22T23:24:21.751Z,100332.16
2019-05-22T23:26:56.585Z,100325.57
2019-05-22T23:29:31.710Z,100329.06
2019-05-22T23:32:04.798Z,100332.14
2019-05-22T23:34:39.024Z,100331.69
2019-05-22T23:37:14.048Z,100332.98
2019-05-22T23:39:48.584Z,100330.39
2019-05-22T23:42:26.731Z,100337.81
2019-05-22T23:45:02.612Z,100335.59
2019-05-22T23:47:40.864Z,100335.63
2019-05-22T23:50:14.441Z,100333.02
2019-05-22T23:52:47.126Z,100333.44
2019-05-22T23:55:20.526Z,100329.47
2019-05-22T23:57:53.105Z,100329.44
